Latest Weather Observations for Badgerys Creek

IDN60801

Issued at 9:04 pm EDT Tuesday 27 January 2015 (issued every 30 minutes, with the page automatically refreshed every 10 minutes)

About weather observations | Map of weather stations | Latest weather observations for NSW | Other Formats
Station Details ID: 067108 Name: BADGERYS CREEK AWS Lat: -33.90 Lon: 150.73 Height: 81.2 m
Data from the previous 72 hours. | See also: Recent months at Badgerys Creek
Date/Time
EDT
Temp
°C
App
Temp
°C
Dew
Point
Rel
Hum
%
Delta-T
°C
Wind Press
QNH
hPa
Press
MSL
hPa
Rain
since 9 am
mm
Dir
 
Spd
km/h
Gust
km/h
Spd
kts
Gust
kts
27/09:00pm 18.0 20.3 17.7 98 0.2 WNW 2 4 1 2 1012.8 1012.4 20.6
27/08:30pm 18.0 19.8 17.5 97 0.3 NNW 4 7 2 4 1013.0 1012.6 20.2
27/08:00pm 18.2 20.1 17.6 96 0.4 NNE 4 4 2 2 1012.8 1012.4 19.8
27/07:30pm 18.3 20.5 17.5 95 0.5 N 2 2 1 1 1012.5 1012.1 19.8
27/07:00pm 18.3 20.7 17.1 93 0.7 CALM 0 0 0 0 1012.4 1012.0 19.8
27/06:30pm 18.2 19.5 17.2 94 0.6 NNE 6 9 3 5 1012.4 1012.0 19.8
27/06:00pm 18.8 20.3 17.6 93 0.7 E 6 7 3 4 1012.1 1011.7 19.8
27/05:30pm 18.7 19.9 17.4 92 0.8 ESE 7 11 4 6 1012.1 1011.7 19.8
27/05:00pm 18.8 20.2 17.8 94 0.6 ESE 7 11 4 6 1012.3 1011.9 19.8
27/04:30pm 18.7 20.4 18.4 98 0.2 SE 7 13 4 7 1012.5 1012.1 19.8
27/04:00pm 18.6 19.7 18.1 97 0.3 SSE 9 15 5 8 1012.5 1012.1 19.4
27/03:30pm 18.6 19.7 18.1 97 0.3 SE 9 15 5 8 1012.8 1012.4 19.4
27/03:00pm 18.5 18.9 18.2 98 0.2 SSE 13 19 7 10 1012.8 1012.4 19.4
27/02:30pm 18.4 20.0 18.2 99 0.1 SSE 7 11 4 6 1013.2 1012.8 18.4
27/02:00pm 18.1 19.2 17.9 99 0.1 SSE 9 19 5 10 1013.4 1013.0 16.8
27/01:30pm 18.3 19.5 18.3 100 0.0 SSE 9 17 5 9 1013.3 1012.9 15.4
27/01:00pm 18.1 19.5 17.9 99 0.1 S 7 11 4 6 1013.5 1013.1 15.0
27/12:30pm 18.1 19.2 18.1 100 0.0 SSE 9 17 5 9 1013.8 1013.5 15.0
27/12:00pm 18.0 19.1 18.0 100 0.0 SE 9 17 5 9 1014.0 1013.7 14.2
27/11:30am 18.1 19.7 17.9 99 0.1 S 6 15 3 8 1014.4 1014.1 7.8
27/11:00am 18.5 19.7 18.3 99 0.1 S 9 15 5 8 1014.0 1013.7 1.6
27/10:30am 18.4 19.6 18.2 99 0.1 S 9 13 5 7 1013.9 1013.6 1.0
27/10:00am 18.3 19.2 18.3 100 0.0 S 11 17 6 9 1013.6 1013.2 1.0
27/09:30am 17.8 18.7 17.6 99 0.1 SW 9 13 5 7 1013.7 1013.3 0.8
27/09:00am 17.8 18.7 17.6 99 0.1 SW 9 13 5 7 1013.6 1013.2 9.6
27/08:30am 17.7 18.3 17.7 100 0.0 SSW 11 17 6 9 1013.3 1012.9 9.6
27/08:00am 17.4 18.2 17.4 100 0.0 SSW 9 13 5 7 1013.2 1012.8 9.4
27/07:30am 17.4 17.9 17.4 100 0.0 SW 11 15 6 8 1013.2 1012.8 9.4
27/07:00am 17.4 18.6 17.4 100 0.0 SW 7 11 4 6 1013.0 1012.6 8.2
27/06:30am 17.5 17.6 17.5 100 0.0 S 13 17 7 9 1012.7 1012.3 7.8
27/06:00am 17.6 18.5 17.6 100 0.0 SSW 9 13 5 7 1012.5 1012.1 7.2
27/05:30am 17.6 18.9 17.6 100 0.0 S 7 11 4 6 1012.5 1012.1 6.6
27/05:00am 17.5 18.8 17.5 100 0.0 SSW 7 11 4 6 1012.5 1012.1 6.2
27/04:30am 17.5 18.4 17.5 100 0.0 SSW 9 13 5 7 1012.6 1012.2 6.0
27/04:00am 17.4 18.2 17.4 100 0.0 SSW 9 11 5 6 1012.8 1012.4 5.6
27/03:30am 17.3 18.7 17.3 100 0.0 SW 6 7 3 4 1013.1 1012.7 4.4
27/03:00am 17.3 18.4 17.1 99 0.1 SSW 7 11 4 6 1013.1 1012.7 2.8
27/02:30am 17.1 18.3 16.9 99 0.1 SW 6 7 3 4 1013.2 1012.8 2.4
27/02:00am 17.1 17.7 16.9 99 0.1 SW 9 11 5 6 1013.5 1013.1 2.2
27/01:30am 16.9 17.1 16.7 99 0.1 SW 11 13 6 7 1013.6 1013.2 2.2
27/01:00am 16.8 16.9 16.6 99 0.1 SW 11 15 6 8 1014.0 1013.7 2.2
27/12:30am 16.8 17.0 16.8 100 0.0 SW 11 13 6 7 1014.3 1014.0 2.0
27/12:00am 16.7 16.9 16.7 100 0.0 SW 11 13 6 7 1014.6 1014.3 1.8
 
Date/Time
EDT
Temp
°C
App
Temp
°C
Dew
Point
Rel
Hum
%
Delta-T
°C
Wind Press
QNH
hPa
Press
MSL
hPa
Rain
since 9 am
mm
Dir
 
Spd
km/h
Gust
km/h
Spd
kts
Gust
kts
26/11:30pm 16.6 16.7 16.4 99 0.1 SW 11 13 6 7 1014.8 1014.5 1.6
26/11:00pm 16.5 16.9 16.2 98 0.2 SW 9 13 5 7 1015.1 1014.8 1.0
26/10:30pm 16.6 17.0 16.3 98 0.2 SW 9 11 5 6 1015.3 1015.0 1.0
26/10:00pm 16.7 17.1 16.4 98 0.2 SW 9 13 5 7 1015.4 1015.1 1.0
26/09:30pm 16.6 16.9 16.1 97 0.3 SSW 9 13 5 7 1015.5 1015.2 0.8
26/09:00pm 16.6 16.5 16.1 97 0.3 SSW 11 13 6 7 1015.3 1015.0 0.8
26/08:30pm 16.8 17.2 16.2 96 0.4 SSW 9 11 5 6 1015.0 1014.7 0.4
26/08:00pm 16.9 16.9 16.3 96 0.4 SW 11 13 6 7 1014.7 1014.4 0.0
26/07:30pm 17.0 17.7 16.2 95 0.5 SSW 7 11 4 6 1014.7 1014.4 0.0
26/07:00pm 17.2 17.5 15.9 92 0.8 S 9 13 5 7 1014.4 1014.1 0.0
26/06:30pm 18.5 16.9 15.0 80 2.0 S 17 22 9 12 1014.0 1013.7 0.0
26/06:00pm 19.1 18.6 15.0 77 2.4 SSW 11 17 6 9 1013.7 1013.3 0.0
26/05:30pm 19.2 19.6 15.3 78 2.3 SSE 7 13 4 7 1013.8 1013.5 0.0
26/05:00pm 18.6 18.1 14.9 79 2.2 SSE 11 17 6 9 1013.9 1013.6 0.0
26/04:30pm 19.6 19.1 14.8 74 2.8 SSE 11 17 6 9 1014.1 1013.8 0.0
26/04:00pm 19.0 18.0 14.7 76 2.5 S 13 22 7 12 1014.0 1013.7 0.0
26/03:30pm 19.7 18.7 14.5 72 3.0 S 13 19 7 10 1013.8 1013.5 0.0
26/03:00pm 19.3 18.8 15.0 76 2.5 SSW 11 17 6 9 1013.8 1013.5 0.0
26/02:30pm 19.1 19.2 15.6 80 2.1 SSW 9 13 5 7 1013.9 1013.6 0.0
26/02:00pm 18.2 17.7 16.0 87 1.3 S 13 19 7 10 1014.1 1013.8 0.0
26/01:30pm 18.7 18.0 15.4 81 1.9 S 13 20 7 11 1014.4 1014.1 0.0
26/01:00pm 19.3 19.0 15.4 78 2.3 S 11 17 6 9 1014.1 1013.8 0.0
26/12:30pm 19.9 18.9 14.7 72 3.0 SE 13 19 7 10 1014.2 1013.9 0.0
26/12:00pm 20.3 19.8 14.9 71 3.2 SSE 11 17 6 9 1014.0 1013.7 0.0
26/11:30am 20.4 19.9 15.0 71 3.2 SSE 11 17 6 9 1014.1 1013.8 0.0
26/11:00am 20.3 19.4 14.9 71 3.2 SE 13 19 7 10 1014.1 1013.8 0.0
26/10:30am 19.7 19.8 15.4 76 2.5 SSE 9 13 5 7 1014.1 1013.8 0.0
26/10:00am 19.7 18.8 14.9 74 2.8 S 13 24 7 13 1014.0 1013.7 0.0
26/09:30am 20.2 20.2 15.2 73 3.0 S 9 15 5 8 1013.7 1013.3 0.0
26/09:00am 19.9 19.1 15.1 74 2.8 SSW 13 17 7 9 1013.6 1013.2 0.0
26/08:30am 19.8 19.8 15.2 75 2.7 SSW 9 15 5 8 1013.4 1013.0 0.0
26/08:00am 19.6 19.2 15.3 76 2.5 SSW 11 17 6 9 1013.1 1012.7 0.0
26/07:30am 19.5 18.7 15.2 76 2.5 SW 13 19 7 10 1012.7 1012.3 0.0
26/07:00am 19.3 19.3 15.2 77 2.4 SSW 9 11 5 6 1012.6 1012.2 0.0
26/06:30am 19.3 18.9 15.2 77 2.4 SSW 11 15 6 8 1012.1 1011.7 0.0
26/06:00am 19.2 18.9 15.5 79 2.2 SSW 11 15 6 8 1011.7 1011.3 0.0
26/05:30am 19.2 18.9 15.5 79 2.2 SSW 11 13 6 7 1011.3 1010.9 0.0
26/05:00am 19.5 19.3 15.6 78 2.3 SSW 11 17 6 9 1011.1 1010.7 0.0
26/04:30am 19.8 19.7 15.9 78 2.3 SSW 11 17 6 9 1011.0 1010.6 0.0
26/04:00am 20.0 19.8 15.8 77 2.5 S 11 17 6 9 1011.0 1010.6 0.0
26/03:30am 20.1 20.0 15.9 77 2.5 SSW 11 17 6 9 1010.9 1010.5 0.0
26/03:00am 20.2 20.5 16.0 77 2.5 S 9 15 5 8 1010.8 1010.4 0.0
26/02:30am 20.3 20.6 15.9 76 2.6 S 9 15 5 8 1010.8 1010.4 0.0
26/02:00am 20.4 20.4 16.2 77 2.5 S 11 20 6 11 1010.8 1010.4 0.0
26/01:30am 20.4 19.9 16.0 76 2.6 S 13 19 7 10 1010.9 1010.5 0.0
26/01:00am 20.6 20.7 16.4 77 2.5 S 11 17 6 9 1010.8 1010.4 0.0
26/12:30am 20.7 20.3 16.3 76 2.7 S 13 17 7 9 1010.9 1010.5 0.0
26/12:00am 20.9 21.8 16.7 77 2.6 SSE 7 15 4 8 1010.8 1010.4 0.0
 
Date/Time
EDT
Temp
°C
App
Temp
°C
Dew
Point
Rel
Hum
%
Delta-T
°C
Wind Press
QNH
hPa
Press
MSL
hPa
Rain
since 9 am
mm
Dir
 
Spd
km/h
Gust
km/h
Spd
kts
Gust
kts
25/11:30pm 21.1 20.9 16.7 76 2.7 SSE 13 19 7 10 1010.3 1009.9 0.0
25/11:00pm 21.3 21.3 17.3 78 2.5 SE 13 20 7 11 1009.9 1009.5 0.0
25/10:30pm 21.3 22.7 17.7 80 2.2 SSE 7 11 4 6 1009.8 1009.4 0.0
25/10:00pm 21.3 21.3 17.3 78 2.5 SSE 13 19 7 10 1009.1 1008.7 0.0
25/09:30pm 21.5 22.0 17.5 78 2.5 SSE 11 19 6 10 1008.6 1008.2 0.0
25/09:00pm 21.9 21.7 17.5 76 2.7 SE 15 24 8 13 1007.5 1007.1 0.0
25/08:30pm 22.6 21.6 17.5 73 3.2 SE 19 30 10 16 1006.4 1006.0 0.0
25/08:00pm 24.3 23.9 18.0 68 4.0 SE 17 32 9 17 1005.4 1005.0 0.0
25/07:39pm 26.0 24.4 17.4 59 5.4 ESE 22 33 12 18 1004.8 1004.4 0.0
25/07:30pm 31.0 29.4 12.8 32 10.8 S 13 28 7 15 1004.4 1004.1 0.0
25/07:00pm 32.7 30.4 11.8 28 12.4 SW 15 22 8 12 1003.6 1003.3 0.0
25/06:30pm 33.3 30.3 11.8 27 12.7 SW 19 26 10 14 1002.9 1002.5 0.0
25/06:00pm 34.3 32.5 12.0 25 13.3 WSW 13 20 7 11 1002.5 1002.1 0.0
25/05:30pm 34.4 31.3 12.1 26 13.3 WSW 20 32 11 17 1002.3 1001.9 0.0
25/05:00pm 34.2 29.9 10.7 24 13.8 WSW 24 35 13 19 1002.0 1001.6 0.0
25/04:30pm 34.3 30.7 13.2 28 12.8 SW 24 39 13 21 1001.9 1001.5 0.0
25/04:00pm 34.8 32.7 16.1 32 11.9 WSW 22 33 12 18 1001.8 1001.4 0.0
25/03:30pm 34.3 32.9 17.1 36 11.0 WSW 20 32 11 17 1001.7 1001.3 0.0
25/03:00pm 34.7 34.2 17.0 35 11.4 W 15 32 8 17 1001.6 1001.2 0.0
25/02:30pm 34.4 34.2 18.4 38 10.5 WSW 17 24 9 13 1001.5 1001.1 0.0
25/02:00pm 33.4 36.1 20.2 46 8.8 SW 6 13 3 7 1001.5 1001.1 0.0
25/01:30pm 32.9 36.2 21.4 50 7.8 NE 6 9 3 5 1001.6 1001.2 0.0
25/01:00pm 31.9 35.1 20.5 51 7.6 N 4 9 2 5 1001.9 1001.5 0.0
25/12:30pm 31.2 34.7 21.1 55 6.8 WSW 4 7 2 4 1002.1 1001.7 0.0
25/12:00pm 30.1 32.7 20.4 56 6.5 N 7 13 4 7 1002.5 1002.1 0.0
25/11:30am 29.5 32.9 21.7 63 5.3 NNE 6 9 3 5 1002.8 1002.4 0.0
25/11:00am 27.6 30.6 20.9 67 4.5 NNE 6 9 3 5 1003.0 1002.7 0.0
25/10:30am 26.6 29.9 21.4 73 3.5 NNE 6 9 3 5 1003.2 1002.9 0.0
25/10:00am 25.0 28.4 20.9 78 2.7 N 4 7 2 4 1003.2 1002.9 0.0
25/09:30am 24.0 27.7 21.5 86 1.7 N 4 7 2 4 1003.2 1002.9 0.0
25/09:00am 23.2 26.1 20.7 86 1.6 N 6 9 3 5 1003.3 1003.0 8.6
25/08:30am 22.7 25.7 20.8 89 1.2 NNE 6 7 3 4 1003.4 1003.1 8.6
25/08:00am 21.0 24.7 20.8 99 0.1 NW 2 4 1 2 1003.4 1003.1 8.6
25/07:30am 19.9 23.6 19.9 100 0.0 CALM 0 0 0 0 1003.1 1002.8 8.6
25/07:00am 19.7 22.5 19.7 100 0.0 N 4 6 2 3 1002.9 1002.5 8.6
25/06:30am 19.5 22.6 19.5 100 0.0 NNE 2 2 1 1 1002.5 1002.1 8.6
25/06:00am 19.5 22.5 19.3 99 0.1 WSW 2 4 1 2 1002.1 1001.7 8.6
25/05:30am 19.6 22.7 19.4 99 0.1 WSW 2 2 1 1 1002.0 1001.6 8.6
25/05:00am 19.7 22.0 19.5 99 0.1 WSW 6 6 3 3 1002.0 1001.6 8.6
25/04:30am 19.7 22.0 19.5 99 0.1 WSW 6 7 3 4 1002.1 1001.7 8.6
25/04:00am 19.6 22.3 19.4 99 0.1 WSW 4 6 2 3 1002.3 1001.9 8.6
25/03:30am 19.6 22.1 19.1 97 0.3 NNE 4 6 2 3 1002.5 1002.1 8.6
25/03:00am 19.9 22.9 19.2 96 0.4 NE 2 2 1 1 1003.0 1002.7 8.6
25/02:30am 20.1 23.1 19.3 95 0.5 WNW 2 2 1 1 1003.4 1003.1 8.4
25/02:00am 20.4 23.2 19.6 95 0.5 NW 4 6 2 3 1004.1 1003.8 8.4
25/01:30am 20.6 23.1 19.9 96 0.4 NW 6 9 3 5 1004.6 1004.3 8.4
25/01:00am 20.6 24.3 19.9 96 0.4 CALM 0 0 0 0 1005.0 1004.6 8.4
25/12:30am 20.6 23.8 19.8 95 0.5 W 2 6 1 3 1005.6 1005.2 8.4
25/12:00am 20.6 23.5 19.8 95 0.5 W 4 7 2 4 1005.7 1005.3 8.4
 
Date/Time
EDT
Temp
°C
App
Temp
°C
Dew
Point
Rel
Hum
%
Delta-T
°C
Wind Press
QNH
hPa
Press
MSL
hPa
Rain
since 9 am
mm
Dir
 
Spd
km/h
Gust
km/h
Spd
kts
Gust
kts
24/11:30pm 20.8 23.7 19.8 94 0.6 NNW 4 6 2 3 1005.7 1005.3 8.4
24/11:00pm 20.8 22.7 19.8 94 0.6 WNW 9 13 5 7 1006.1 1005.7 8.4
24/10:30pm 20.8 23.1 19.5 92 0.8 SSW 6 9 3 5 1006.3 1005.9 8.4
24/10:00pm 21.3 22.9 19.9 92 0.9 SW 11 17 6 9 1006.8 1006.4 7.6
24/09:30pm 21.9 23.0 20.4 91 1.0 SW 15 20 8 11 1006.8 1006.4 7.6
24/09:10pm 23.0 22.3 19.6 81 2.2 W 22 46 12 25 1007.3 1006.9 2.4

Other Formats:

Comma delimited format used in spreadsheet applications
http://www.bom.gov.au/fwo/IDN60801/IDN60801.94752.axf

JavaScript Object Notation format (JSON) in row-major order
http://www.bom.gov.au/fwo/IDN60801/IDN60801.94752.json